This is the latest recevied weather packets stored in our database for station/object F6ANO-13. If no packets are shown the sender has not sent any weather packets the latest 10 day(s).
| Time | Temp. | Humidity | Pressure | Rain* | Wind** | Luminosity | Snow |
|---|---|---|---|---|---|---|---|
| 1788189898 | 22.78° C | 66% | 1018.5 hPa | 0 mm | - | - | - |
| 1788189478 | 22.78° C | 67% | 1018.4 hPa | 0 mm | - | - | - |
| 1788189058 | 22.78° C | 66% | 1018.3 hPa | 0 mm | - | - | - |
| 1788188638 | 22.78° C | 68% | 1018.3 hPa | 0 mm | - | - | - |
| 1788188218 | 22.22° C | 71% | 1018.2 hPa | 0 mm | - | - | - |
| 1788187798 | 21.11° C | 73% | 1018.3 hPa | 0 mm | - | - | - |
| 1788187378 | 20.56° C | 77% | 1018.3 hPa | 0 mm | - | - | - |
| 1788186958 | 20° C | 78% | 1018.2 hPa | 0 mm | - | - | - |
| 1788186537 | 20° C | 80% | 1018.4 hPa | 0 mm | - | - | - |
| 1788186119 | 20.56° C | 78% | 1018.4 hPa | 0 mm | - | - | - |
| 1788185698 | 21.11° C | 75% | 1018.4 hPa | 0 mm | - | - | - |
| 1788185278 | 22.22° C | 69% | 1018.3 hPa | 0 mm | - | - | - |
| 1788184858 | 23.33° C | 62% | 1017.9 hPa | 0 mm | - | - | - |
| 1788184438 | 22.78° C | 62% | 1017.8 hPa | 0 mm | - | - | - |
| 1788184018 | 22.78° C | 61% | 1017.8 hPa | 0 mm | - | - | - |
| 1788183597 | 23.33° C | 60% | 1017.7 hPa | 0 mm | - | - | - |
| 1788183177 | 23.33° C | 60% | 1017.5 hPa | 0 mm | - | - | - |
| 1788182757 | 23.33° C | 60% | 1017.4 hPa | 0 mm | - | - | - |
| 1788182337 | 23.33° C | 59% | 1017.5 hPa | 0 mm | - | - | - |
| 1788181918 | 23.33° C | 61% | 1017.4 hPa | 0 mm | - | - | - |
| 1788181498 | 23.33° C | 59% | 1017.5 hPa | 0 mm | - | - | - |
| 1788181078 | 23.33° C | 59% | 1017.3 hPa | 0 mm | - | - | - |
| 1788180658 | 23.33° C | 62% | 1017.3 hPa | 0 mm | - | - | - |
| 1788180238 | 23.33° C | 59% | 1017.3 hPa | 0 mm | - | - | - |
| 1788179817 | 23.89° C | 62% | 1017.4 hPa | 0 mm | - | - | - |
* Rain latest hour (hover to see other rain measurements)
** Current wind speed in m/s (hover to see current wind gust speed)